sensor_id;sensor_type;location;lat;lon;timestamp;pressure;altitude;pressure_sealevel;temperature;humidity
11605;BME280;5858;43.076;25.626;2023-02-02T00:01:18;99248.00;;;3.53;82.55
11605;BME280;5858;43.076;25.626;2023-02-02T00:03:46;99104.56;;;2.64;82.55
11605;BME280;5858;43.076;25.626;2023-02-02T00:06:13;99266.50;;;3.62;82.98
11605;BME280;5858;43.076;25.626;2023-02-02T00:08:41;99088.66;;;2.35;83.25
11605;BME280;5858;43.076;25.626;2023-02-02T00:11:08;99099.41;;;2.52;83.25
11605;BME280;5858;43.076;25.626;2023-02-02T00:13:37;99247.31;;;3.31;83.83
11605;BME280;5858;43.076;25.626;2023-02-02T00:16:34;99180.22;;;2.94;83.75
11605;BME280;5858;43.076;25.626;2023-02-02T00:19:05;99191.91;;;3.01;83.40
11605;BME280;5858;43.076;25.626;2023-02-02T00:21:33;99234.34;;;3.19;83.07
11605;BME280;5858;43.076;25.626;2023-02-02T00:24:02;99254.84;;;3.36;83.03
11605;BME280;5858;43.076;25.626;2023-02-02T00:26:30;99260.13;;;3.45;82.08
11605;BME280;5858;43.076;25.626;2023-02-02T00:28:59;99237.56;;;3.32;82.46
11605;BME280;5858;43.076;25.626;2023-02-02T00:31:26;99274.72;;;3.69;82.09
11605;BME280;5858;43.076;25.626;2023-02-02T00:33:55;99121.78;;;2.58;81.73
11605;BME280;5858;43.076;25.626;2023-02-02T00:36:22;99251.75;;;3.50;81.55
11605;BME280;5858;43.076;25.626;2023-02-02T00:38:50;99261.19;;;3.72;80.71
11605;BME280;5858;43.076;25.626;2023-02-02T00:41:18;99290.03;;;3.85;80.08
11605;BME280;5858;43.076;25.626;2023-02-02T00:43:45;99237.16;;;3.46;79.31
11605;BME280;5858;43.076;25.626;2023-02-02T00:46:39;99286.28;;;3.68;80.26
11605;BME280;5858;43.076;25.626;2023-02-02T00:49:05;99302.84;;;3.79;79.85
11605;BME280;5858;43.076;25.626;2023-02-02T00:51:34;99274.16;;;3.65;79.89
11605;BME280;5858;43.076;25.626;2023-02-02T00:54:01;99308.72;;;3.83;80.73
11605;BME280;5858;43.076;25.626;2023-02-02T00:56:31;99188.97;;;3.23;80.25
11605;BME280;5858;43.076;25.626;2023-02-02T00:58:58;99196.34;;;3.29;80.25
11605;BME280;5858;43.076;25.626;2023-02-02T01:01:25;99282.94;;;3.85;81.09
11605;BME280;5858;43.076;25.626;2023-02-02T01:03:57;99135.88;;;2.88;81.24
11605;BME280;5858;43.076;25.626;2023-02-02T01:06:24;99258.56;;;3.53;82.04
11605;BME280;5858;43.076;25.626;2023-02-02T01:08:52;99250.38;;;3.56;82.26
11605;BME280;5858;43.076;25.626;2023-02-02T01:11:23;99277.78;;;3.74;81.43
11605;BME280;5858;43.076;25.626;2023-02-02T01:13:50;99235.63;;;3.34;80.35
11605;BME280;5858;43.076;25.626;2023-02-02T01:16:18;99214.31;;;3.26;79.98
11605;BME280;5858;43.076;25.626;2023-02-02T01:18:46;99115.13;;;2.54;80.50
11605;BME280;5858;43.076;25.626;2023-02-02T01:21:15;99269.00;;;3.73;81.68
11605;BME280;5858;43.076;25.626;2023-02-02T01:23:42;99283.34;;;3.81;81.89
11605;BME280;5858;43.076;25.626;2023-02-02T01:26:11;99287.69;;;3.82;82.60
11605;BME280;5858;43.076;25.626;2023-02-02T01:28:39;99294.91;;;3.79;82.93
11605;BME280;5858;43.076;25.626;2023-02-02T01:31:08;99154.06;;;2.81;83.27
11605;BME280;5858;43.076;25.626;2023-02-02T01:33:36;99255.81;;;3.44;83.65
11605;BME280;5858;43.076;25.626;2023-02-02T01:36:08;99234.34;;;3.28;83.43
11605;BME280;5858;43.076;25.626;2023-02-02T01:38:37;99287.94;;;3.59;83.31
11605;BME280;5858;43.076;25.626;2023-02-02T01:41:05;99223.34;;;3.23;83.75
11605;BME280;5858;43.076;25.626;2023-02-02T01:43:51;99205.69;;;3.14;83.73
11605;BME280;5858;43.076;25.626;2023-02-02T01:46:21;99271.38;;;3.47;83.43
11605;BME280;5858;43.076;25.626;2023-02-02T01:48:52;99214.88;;;3.00;83.60
11605;BME280;5858;43.076;25.626;2023-02-02T01:51:24;99268.59;;;3.39;83.86
11605;BME280;5858;43.076;25.626;2023-02-02T01:53:56;99272.78;;;3.32;84.28
11605;BME280;5858;43.076;25.626;2023-02-02T01:56:27;99181.56;;;2.59;84.65
11605;BME280;5858;43.076;25.626;2023-02-02T01:58:55;99269.28;;;3.22;84.54
11605;BME280;5858;43.076;25.626;2023-02-02T02:01:24;99280.53;;;3.14;84.81
11605;BME280;5858;43.076;25.626;2023-02-02T02:03:51;99276.91;;;3.15;84.37
11605;BME280;5858;43.076;25.626;2023-02-02T02:06:19;99207.16;;;2.78;84.23
11605;BME280;5858;43.076;25.626;2023-02-02T02:08:52;99275.94;;;3.16;84.65
11605;BME280;5858;43.076;25.626;2023-02-02T02:11:22;99175.69;;;2.46;84.98
11605;BME280;5858;43.076;25.626;2023-02-02T02:13:51;99168.50;;;2.58;84.68
11605;BME280;5858;43.076;25.626;2023-02-02T02:16:46;99178.94;;;2.69;85.21
11605;BME280;5858;43.076;25.626;2023-02-02T02:19:34;99119.09;;;2.29;85.75
11605;BME280;5858;43.076;25.626;2023-02-02T02:22:35;99262.44;;;3.20;86.02
11605;BME280;5858;43.076;25.626;2023-02-02T02:25:43;99262.31;;;3.21;86.29
11605;BME280;5858;43.076;25.626;2023-02-02T02:28:52;99261.75;;;3.17;86.47
11605;BME280;5858;43.076;25.626;2023-02-02T02:31:55;99227.25;;;3.09;86.46
11605;BME280;5858;43.076;25.626;2023-02-02T02:34:32;99258.41;;;3.25;86.23
11605;BME280;5858;43.076;25.626;2023-02-02T02:37:09;99267.03;;;3.27;86.54
11605;BME280;5858;43.076;25.626;2023-02-02T02:39:40;99174.22;;;2.72;86.57
11605;BME280;5858;43.076;25.626;2023-02-02T02:42:13;99209.72;;;2.89;86.21
11605;BME280;5858;43.076;25.626;2023-02-02T02:44:42;99227.66;;;3.05;86.91
11605;BME280;5858;43.076;25.626;2023-02-02T02:47:11;99095.19;;;2.31;86.77
11605;BME280;5858;43.076;25.626;2023-02-02T02:49:41;99219.19;;;3.01;86.20
11605;BME280;5858;43.076;25.626;2023-02-02T02:52:09;99205.69;;;3.04;86.54
11605;BME280;5858;43.076;25.626;2023-02-02T02:54:38;99259.66;;;3.31;86.76
11605;BME280;5858;43.076;25.626;2023-02-02T02:57:26;99254.78;;;3.16;86.86
11605;BME280;5858;43.076;25.626;2023-02-02T03:00:03;99257.03;;;3.21;86.91
11605;BME280;5858;43.076;25.626;2023-02-02T03:02:41;99256.31;;;3.19;87.55
11605;BME280;5858;43.076;25.626;2023-02-02T03:05:20;99207.72;;;2.81;87.15
11605;BME280;5858;43.076;25.626;2023-02-02T03:07:58;99253.81;;;2.98;87.82
11605;BME280;5858;43.076;25.626;2023-02-02T03:10:30;99185.59;;;2.53;87.80
11605;BME280;5858;43.076;25.626;2023-02-02T03:12:57;99205.78;;;2.74;87.69
11605;BME280;5858;43.076;25.626;2023-02-02T03:15:24;99206.59;;;2.65;88.43
11605;BME280;5858;43.076;25.626;2023-02-02T03:17:53;99211.31;;;2.61;88.36
11605;BME280;5858;43.076;25.626;2023-02-02T03:20:21;99094.84;;;1.95;88.25
11605;BME280;5858;43.076;25.626;2023-02-02T03:22:48;99093.19;;;1.94;88.18
11605;BME280;5858;43.076;25.626;2023-02-02T03:25:15;99131.00;;;2.14;88.61
11605;BME280;5858;43.076;25.626;2023-02-02T03:27:42;99143.38;;;2.13;89.04
11605;BME280;5858;43.076;25.626;2023-02-02T03:30:11;99244.44;;;2.75;89.09
11605;BME280;5858;43.076;25.626;2023-02-02T03:32:39;99246.97;;;2.86;88.67
11605;BME280;5858;43.076;25.626;2023-02-02T03:35:10;99174.06;;;2.14;89.04
11605;BME280;5858;43.076;25.626;2023-02-02T03:37:37;99094.06;;;1.74;89.46
11605;BME280;5858;43.076;25.626;2023-02-02T03:40:05;99130.69;;;1.98;89.39
11605;BME280;5858;43.076;25.626;2023-02-02T03:42:32;99250.53;;;2.75;89.99
11605;BME280;5858;43.076;25.626;2023-02-02T03:45:00;99159.75;;;2.17;89.63
11605;BME280;5858;43.076;25.626;2023-02-02T03:47:28;99292.31;;;2.91;89.79
11605;BME280;5858;43.076;25.626;2023-02-02T03:49:56;99275.22;;;2.95;89.54
11605;BME280;5858;43.076;25.626;2023-02-02T03:52:25;99041.69;;;1.60;89.79
11605;BME280;5858;43.076;25.626;2023-02-02T03:54:52;99220.66;;;2.75;90.21
11605;BME280;5858;43.076;25.626;2023-02-02T03:57:19;99101.59;;;1.88;90.35
11605;BME280;5858;43.076;25.626;2023-02-02T03:59:46;99190.97;;;2.42;90.51
11605;BME280;5858;43.076;25.626;2023-02-02T04:02:15;99174.94;;;2.34;90.77
11605;BME280;5858;43.076;25.626;2023-02-02T04:04:42;99177.78;;;2.42;90.90
11605;BME280;5858;43.076;25.626;2023-02-02T04:07:09;99208.22;;;2.46;91.52
11605;BME280;5858;43.076;25.626;2023-02-02T04:09:38;99168.81;;;2.24;91.37
11605;BME280;5858;43.076;25.626;2023-02-02T04:12:05;99125.13;;;2.01;91.85
11605;BME280;5858;43.076;25.626;2023-02-02T04:14:32;99237.59;;;2.72;91.60
11605;BME280;5858;43.076;25.626;2023-02-02T04:16:59;99251.09;;;2.79;91.23
11605;BME280;5858;43.076;25.626;2023-02-02T04:19:26;99234.81;;;2.74;91.39
11605;BME280;5858;43.076;25.626;2023-02-02T04:21:54;99260.84;;;2.78;91.29
11605;BME280;5858;43.076;25.626;2023-02-02T04:24:21;99145.00;;;2.05;91.80
11605;BME280;5858;43.076;25.626;2023-02-02T04:26:49;99122.78;;;1.77;92.01
11605;BME280;5858;43.076;25.626;2023-02-02T04:29:17;99218.50;;;2.40;91.41
11605;BME280;5858;43.076;25.626;2023-02-02T04:31:43;99253.59;;;2.71;91.63
11605;BME280;5858;43.076;25.626;2023-02-02T04:34:11;99199.25;;;2.28;91.80
11605;BME280;5858;43.076;25.626;2023-02-02T04:36:38;99180.19;;;2.25;91.34
11605;BME280;5858;43.076;25.626;2023-02-02T04:39:05;99274.19;;;2.77;91.37
11605;BME280;5858;43.076;25.626;2023-02-02T04:41:34;99220.63;;;2.56;90.28
11605;BME280;5858;43.076;25.626;2023-02-02T04:44:02;99171.63;;;2.32;90.47
11605;BME280;5858;43.076;25.626;2023-02-02T04:46:31;99109.22;;;1.81;90.15
11605;BME280;5858;43.076;25.626;2023-02-02T04:48:58;99149.47;;;2.14;90.26
11605;BME280;5858;43.076;25.626;2023-02-02T04:51:37;99075.59;;;1.74;90.40
11605;BME280;5858;43.076;25.626;2023-02-02T04:54:04;99133.31;;;1.98;89.97
11605;BME280;5858;43.076;25.626;2023-02-02T04:56:32;99180.81;;;2.38;89.79
11605;BME280;5858;43.076;25.626;2023-02-02T04:58:59;99204.19;;;2.42;90.41
11605;BME280;5858;43.076;25.626;2023-02-02T05:01:27;99171.72;;;2.21;90.75
11605;BME280;5858;43.076;25.626;2023-02-02T05:03:55;99280.72;;;2.73;91.03
11605;BME280;5858;43.076;25.626;2023-02-02T05:06:23;99281.25;;;2.67;91.32
11605;BME280;5858;43.076;25.626;2023-02-02T05:08:50;99276.66;;;2.69;90.88
11605;BME280;5858;43.076;25.626;2023-02-02T05:11:19;99181.34;;;1.92;90.75
11605;BME280;5858;43.076;25.626;2023-02-02T05:13:47;99103.00;;;1.52;91.35
11605;BME280;5858;43.076;25.626;2023-02-02T05:16:15;99110.25;;;1.60;90.73
11605;BME280;5858;43.076;25.626;2023-02-02T05:18:48;99237.59;;;2.32;91.23
11605;BME280;5858;43.076;25.626;2023-02-02T05:21:15;99181.53;;;2.09;91.59
11605;BME280;5858;43.076;25.626;2023-02-02T05:23:42;99215.34;;;2.25;91.29
11605;BME280;5858;43.076;25.626;2023-02-02T05:29:55;99277.91;;;2.65;91.61
11605;BME280;5858;43.076;25.626;2023-02-02T05:32:40;99277.22;;;2.72;91.13
11605;BME280;5858;43.076;25.626;2023-02-02T05:35:17;99259.66;;;2.52;91.36
11605;BME280;5858;43.076;25.626;2023-02-02T05:37:52;99210.31;;;2.12;91.32
11605;BME280;5858;43.076;25.626;2023-02-02T05:40:20;99298.66;;;2.79;91.24
11605;BME280;5858;43.076;25.626;2023-02-02T05:42:58;99299.00;;;2.86;91.13
11605;BME280;5858;43.076;25.626;2023-02-02T05:45:27;99201.31;;;2.25;90.82
11605;BME280;5858;43.076;25.626;2023-02-02T05:48:03;99262.19;;;2.63;91.03
11605;BME280;5858;43.076;25.626;2023-02-02T05:50:35;99190.09;;;2.32;90.69
11605;BME280;5858;43.076;25.626;2023-02-02T05:53:09;99239.13;;;2.65;90.33
11605;BME280;5858;43.076;25.626;2023-02-02T05:55:41;99189.78;;;2.26;89.35
11605;BME280;5858;43.076;25.626;2023-02-02T05:58:11;99310.03;;;3.20;89.02
11605;BME280;5858;43.076;25.626;2023-02-02T06:04:14;99306.19;;;3.43;87.50
11605;BME280;5858;43.076;25.626;2023-02-02T06:07:31;99139.72;;;2.45;87.65
11605;BME280;5858;43.076;25.626;2023-02-02T06:10:23;99186.59;;;2.72;87.30
11605;BME280;5858;43.076;25.626;2023-02-02T06:12:54;99132.63;;;2.55;87.29
11605;BME280;5858;43.076;25.626;2023-02-02T06:15:27;99259.41;;;3.43;86.95
11605;BME280;5858;43.076;25.626;2023-02-02T06:18:05;99260.38;;;3.62;86.59
11605;BME280;5858;43.076;25.626;2023-02-02T06:20:39;99149.06;;;2.97;85.35
11605;BME280;5858;43.076;25.626;2023-02-02T06:23:37;99181.88;;;3.24;84.93
11605;BME280;5858;43.076;25.626;2023-02-02T06:26:17;99133.59;;;3.22;84.12
11605;BME280;5858;43.076;25.626;2023-02-02T06:28:58;99241.97;;;3.89;83.85
11605;BME280;5858;43.076;25.626;2023-02-02T06:31:27;99291.56;;;4.43;84.06
11605;BME280;5858;43.076;25.626;2023-02-02T06:33:57;99290.94;;;4.59;83.16
11605;BME280;5858;43.076;25.626;2023-02-02T06:36:25;99243.63;;;4.37;82.18
11605;BME280;5858;43.076;25.626;2023-02-02T06:38:55;99292.78;;;4.86;81.79
11605;BME280;5858;43.076;25.626;2023-02-02T06:41:25;99119.94;;;3.92;80.91
11605;BME280;5858;43.076;25.626;2023-02-02T06:43:53;99124.44;;;4.09;80.23
11605;BME280;5858;43.076;25.626;2023-02-02T06:46:25;99225.19;;;4.72;79.17
11605;BME280;5858;43.076;25.626;2023-02-02T06:48:52;99216.91;;;4.85;75.64
11605;BME280;5858;43.076;25.626;2023-02-02T06:51:21;99266.19;;;5.23;74.61
11605;BME280;5858;43.076;25.626;2023-02-02T06:53:48;99300.63;;;5.68;71.87
11605;BME280;5858;43.076;25.626;2023-02-02T06:56:38;99150.91;;;4.64;69.87
11605;BME280;5858;43.076;25.626;2023-02-02T06:59:11;99248.84;;;5.47;69.41
11605;BME280;5858;43.076;25.626;2023-02-02T07:01:38;99302.22;;;5.79;67.95
11605;BME280;5858;43.076;25.626;2023-02-02T07:04:06;99297.38;;;5.92;67.71
11605;BME280;5858;43.076;25.626;2023-02-02T07:06:33;99213.88;;;5.51;66.88
11605;BME280;5858;43.076;25.626;2023-02-02T07:09:00;99147.72;;;5.14;65.21
11605;BME280;5858;43.076;25.626;2023-02-02T07:11:28;99266.94;;;5.87;66.74
11605;BME280;5858;43.076;25.626;2023-02-02T07:13:57;99256.06;;;5.98;64.70
11605;BME280;5858;43.076;25.626;2023-02-02T07:16:25;99152.38;;;5.30;64.21
11605;BME280;5858;43.076;25.626;2023-02-02T07:18:53;99326.78;;;6.43;64.60
11605;BME280;5858;43.076;25.626;2023-02-02T07:21:23;99264.09;;;6.06;62.87
11605;BME280;5858;43.076;25.626;2023-02-02T07:23:52;99348.06;;;6.69;62.35
11605;BME280;5858;43.076;25.626;2023-02-02T07:26:19;99221.09;;;6.03;61.78
11605;BME280;5858;43.076;25.626;2023-02-02T07:28:47;99277.78;;;6.45;61.05
11605;BME280;5858;43.076;25.626;2023-02-02T07:31:18;99169.16;;;5.82;62.41
11605;BME280;5858;43.076;25.626;2023-02-02T07:33:46;99214.97;;;6.10;61.78
11605;BME280;5858;43.076;25.626;2023-02-02T07:36:22;99322.56;;;6.92;60.43
11605;BME280;5858;43.076;25.626;2023-02-02T07:38:51;99290.09;;;6.72;60.58
11605;BME280;5858;43.076;25.626;2023-02-02T07:41:20;99336.50;;;7.28;60.34
11605;BME280;5858;43.076;25.626;2023-02-02T07:43:47;99310.03;;;7.10;59.17
11605;BME280;5858;43.076;25.626;2023-02-02T07:46:17;99184.47;;;6.56;59.69
11605;BME280;5858;43.076;25.626;2023-02-02T07:48:45;99359.09;;;7.66;57.49
11605;BME280;5858;43.076;25.626;2023-02-02T07:51:23;99288.47;;;7.38;56.43
11605;BME280;5858;43.076;25.626;2023-02-02T07:53:53;99248.88;;;7.35;57.32
11605;BME280;5858;43.076;25.626;2023-02-02T07:56:29;99251.19;;;7.46;57.68
11605;BME280;5858;43.076;25.626;2023-02-02T07:59:05;99368.94;;;8.31;55.44
11605;BME280;5858;43.076;25.626;2023-02-02T08:01:34;99349.81;;;8.35;55.64
11605;BME280;5858;43.076;25.626;2023-02-02T08:04:03;99297.03;;;8.06;54.56
11605;BME280;5858;43.076;25.626;2023-02-02T08:06:32;99341.47;;;8.38;54.22
11605;BME280;5858;43.076;25.626;2023-02-02T08:09:04;99337.97;;;8.38;53.37
11605;BME280;5858;43.076;25.626;2023-02-02T08:11:32;99287.50;;;8.04;52.70
11605;BME280;5858;43.076;25.626;2023-02-02T08:14:01;99222.09;;;7.52;53.09
11605;BME280;5858;43.076;25.626;2023-02-02T08:16:30;99345.97;;;8.30;52.62
11605;BME280;5858;43.076;25.626;2023-02-02T08:19:13;99341.16;;;8.41;52.54
11605;BME280;5858;43.076;25.626;2023-02-02T08:21:43;99294.00;;;7.93;52.31
11605;BME280;5858;43.076;25.626;2023-02-02T08:24:12;99243.75;;;7.66;52.64
11605;BME280;5858;43.076;25.626;2023-02-02T08:26:39;99344.47;;;8.27;52.82
11605;BME280;5858;43.076;25.626;2023-02-02T08:29:07;99207.28;;;7.34;53.25
11605;BME280;5858;43.076;25.626;2023-02-02T08:31:36;99291.50;;;8.00;53.98
11605;BME280;5858;43.076;25.626;2023-02-02T08:34:09;99327.81;;;8.17;52.94
11605;BME280;5858;43.076;25.626;2023-02-02T08:36:39;99340.31;;;8.25;54.37
11605;BME280;5858;43.076;25.626;2023-02-02T08:39:09;99348.66;;;8.54;52.80
11605;BME280;5858;43.076;25.626;2023-02-02T08:41:42;99192.31;;;7.57;53.13
11605;BME280;5858;43.076;25.626;2023-02-02T08:44:13;99337.13;;;8.62;52.56
11605;BME280;5858;43.076;25.626;2023-02-02T08:46:41;99191.31;;;7.74;52.21
11605;BME280;5858;43.076;25.626;2023-02-02T08:49:21;99346.44;;;8.74;51.77
11605;BME280;5858;43.076;25.626;2023-02-02T08:51:56;99173.34;;;7.68;50.97
11605;BME280;5858;43.076;25.626;2023-02-02T08:54:33;99194.47;;;7.78;50.38
11605;BME280;5858;43.076;25.626;2023-02-02T08:57:14;99313.06;;;8.78;49.19
11605;BME280;5858;43.076;25.626;2023-02-02T08:59:43;99210.22;;;8.20;50.13
11605;BME280;5858;43.076;25.626;2023-02-02T09:02:11;99278.28;;;8.63;49.53
11605;BME280;5858;43.076;25.626;2023-02-02T09:04:39;99130.34;;;7.87;48.39
11605;BME280;5858;43.076;25.626;2023-02-02T09:07:11;99310.34;;;8.94;48.24
11605;BME280;5858;43.076;25.626;2023-02-02T09:09:39;99304.81;;;9.04;47.55
11605;BME280;5858;43.076;25.626;2023-02-02T09:12:12;99294.09;;;9.12;47.66
11605;BME280;5858;43.076;25.626;2023-02-02T09:14:42;99186.59;;;8.64;47.14
11605;BME280;5858;43.076;25.626;2023-02-02T09:17:13;99291.81;;;9.32;46.61
11605;BME280;5858;43.076;25.626;2023-02-02T09:19:40;99263.25;;;9.32;46.08
11605;BME280;5858;43.076;25.626;2023-02-02T09:22:08;99097.34;;;8.44;45.83
11605;BME280;5858;43.076;25.626;2023-02-02T09:24:37;99245.00;;;9.44;45.64
11605;BME280;5858;43.076;25.626;2023-02-02T09:27:07;99116.19;;;8.73;44.03
11605;BME280;5858;43.076;25.626;2023-02-02T09:29:37;99178.66;;;9.33;43.80
11605;BME280;5858;43.076;25.626;2023-02-02T09:32:04;99215.44;;;9.68;43.04
11605;BME280;5858;43.076;25.626;2023-02-02T09:34:33;99259.22;;;10.05;42.86
11605;BME280;5858;43.076;25.626;2023-02-02T09:37:00;99111.25;;;9.31;43.08
11605;BME280;5858;43.076;25.626;2023-02-02T09:39:28;99279.97;;;10.40;41.78
11605;BME280;5858;43.076;25.626;2023-02-02T09:42:25;99206.31;;;10.15;42.50
11605;BME280;5858;43.076;25.626;2023-02-02T09:45:07;99243.69;;;10.38;41.22
11605;BME280;5858;43.076;25.626;2023-02-02T09:47:54;99205.78;;;10.34;41.19
11605;BME280;5858;43.076;25.626;2023-02-02T09:50:35;99212.38;;;10.47;40.69
11605;BME280;5858;43.076;25.626;2023-02-02T09:53:10;99178.16;;;10.42;39.90
11605;BME280;5858;43.076;25.626;2023-02-02T09:55:40;99253.56;;;10.82;39.99
11605;BME280;5858;43.076;25.626;2023-02-02T09:58:20;99176.34;;;10.20;40.60
11605;BME280;5858;43.076;25.626;2023-02-02T10:01:02;99196.94;;;10.34;40.54
11605;BME280;5858;43.076;25.626;2023-02-02T10:03:36;99185.75;;;10.01;40.71
11605;BME280;5858;43.076;25.626;2023-02-02T10:06:12;99204.28;;;10.17;39.76
11605;BME280;5858;43.076;25.626;2023-02-02T10:08:47;99140.72;;;9.60;39.34
11605;BME280;5858;43.076;25.626;2023-02-02T10:11:28;99122.03;;;9.60;39.82
11605;BME280;5858;43.076;25.626;2023-02-02T10:14:01;99086.00;;;9.56;39.93
11605;BME280;5858;43.076;25.626;2023-02-02T10:16:30;99217.16;;;10.51;40.24
11605;BME280;5858;43.076;25.626;2023-02-02T10:19:02;99177.03;;;10.36;40.41
11605;BME280;5858;43.076;25.626;2023-02-02T10:21:34;99209.19;;;10.72;40.47
11605;BME280;5858;43.076;25.626;2023-02-02T10:24:35;99138.47;;;10.16;39.89
11605;BME280;5858;43.076;25.626;2023-02-02T10:27:04;99072.94;;;9.76;38.26
11605;BME280;5858;43.076;25.626;2023-02-02T10:29:41;99067.59;;;9.76;38.45
11605;BME280;5858;43.076;25.626;2023-02-02T10:32:15;99066.09;;;9.88;38.58
11605;BME280;5858;43.076;25.626;2023-02-02T10:34:59;99102.81;;;10.24;39.14
11605;BME280;5858;43.076;25.626;2023-02-02T10:37:42;99102.13;;;10.51;38.40
11605;BME280;5858;43.076;25.626;2023-02-02T10:40:24;99167.53;;;10.99;38.67
11605;BME280;5858;43.076;25.626;2023-02-02T10:43:12;99189.22;;;11.26;36.85
11605;BME280;5858;43.076;25.626;2023-02-02T10:46:01;99169.94;;;11.16;37.29
11605;BME280;5858;43.076;25.626;2023-02-02T10:48:33;99171.09;;;11.28;37.15
11605;BME280;5858;43.076;25.626;2023-02-02T10:51:23;99094.53;;;10.91;37.70
11605;BME280;5858;43.076;25.626;2023-02-02T10:53:54;99171.53;;;11.31;36.07
11605;BME280;5858;43.076;25.626;2023-02-02T10:56:25;99013.16;;;10.28;36.44
11605;BME280;5858;43.076;25.626;2023-02-02T10:59:00;99059.28;;;10.66;36.00
11605;BME280;5858;43.076;25.626;2023-02-02T11:01:41;99065.69;;;10.71;35.90
11605;BME280;5858;43.076;25.626;2023-02-02T11:04:09;99090.66;;;10.93;35.83
11605;BME280;5858;43.076;25.626;2023-02-02T11:06:57;99141.38;;;11.23;34.98
11605;BME280;5858;43.076;25.626;2023-02-02T11:09:31;99004.75;;;10.46;35.45
11605;BME280;5858;43.076;25.626;2023-02-02T11:12:04;99041.13;;;11.04;35.93
11605;BME280;5858;43.076;25.626;2023-02-02T11:14:43;99130.03;;;11.70;35.01
11605;BME280;5858;43.076;25.626;2023-02-02T11:17:20;98994.22;;;10.65;34.33
11605;BME280;5858;43.076;25.626;2023-02-02T11:19:52;99044.94;;;10.95;34.53
11605;BME280;5858;43.076;25.626;2023-02-02T11:22:30;99132.72;;;11.70;34.51
11605;BME280;5858;43.076;25.626;2023-02-02T11:28:25;98940.47;;;10.60;34.58
11605;BME280;5858;43.076;25.626;2023-02-02T11:30:59;99084.94;;;11.46;34.33
11605;BME280;5858;43.076;25.626;2023-02-02T11:33:35;98975.56;;;10.72;34.48
11605;BME280;5858;43.076;25.626;2023-02-02T11:36:04;99012.88;;;10.80;35.25
11605;BME280;5858;43.076;25.626;2023-02-02T11:38:34;99078.00;;;11.09;35.44
11605;BME280;5858;43.076;25.626;2023-02-02T11:41:05;99095.28;;;11.27;36.35
11605;BME280;5858;43.076;25.626;2023-02-02T11:43:38;98971.56;;;10.61;36.09
11605;BME280;5858;43.076;25.626;2023-02-02T11:46:18;99036.97;;;10.80;36.18
11605;BME280;5858;43.076;25.626;2023-02-02T11:48:52;99062.44;;;11.19;36.20
11605;BME280;5858;43.076;25.626;2023-02-02T11:51:23;99077.28;;;11.43;35.36
11605;BME280;5858;43.076;25.626;2023-02-02T11:54:01;99042.56;;;11.34;36.45
11605;BME280;5858;43.076;25.626;2023-02-02T11:56:30;98912.19;;;10.51;36.03
11605;BME280;5858;43.076;25.626;2023-02-02T11:58:58;98933.25;;;10.61;36.29
11605;BME280;5858;43.076;25.626;2023-02-02T12:01:33;98932.06;;;10.63;36.67
11605;BME280;5858;43.076;25.626;2023-02-02T12:04:22;99055.31;;;11.54;36.18
11605;BME280;5858;43.076;25.626;2023-02-02T12:06:50;98956.41;;;10.96;36.07
11605;BME280;5858;43.076;25.626;2023-02-02T12:09:20;98983.31;;;11.16;36.41
11605;BME280;5858;43.076;25.626;2023-02-02T12:11:55;99060.16;;;11.72;35.63
11605;BME280;5858;43.076;25.626;2023-02-02T12:14:36;99053.94;;;11.64;36.31
11605;BME280;5858;43.076;25.626;2023-02-02T12:17:32;99013.56;;;11.10;35.62
11605;BME280;5858;43.076;25.626;2023-02-02T12:20:25;98876.84;;;10.13;36.43
11605;BME280;5858;43.076;25.626;2023-02-02T12:23:20;99048.56;;;11.09;36.88
11605;BME280;5858;43.076;25.626;2023-02-02T12:26:19;98913.81;;;10.09;37.46
11605;BME280;5858;43.076;25.626;2023-02-02T12:29:20;99062.06;;;10.79;37.63
11605;BME280;5858;43.076;25.626;2023-02-02T12:31:59;99088.50;;;10.67;37.95
11605;BME280;5858;43.076;25.626;2023-02-02T12:34:38;99062.84;;;10.37;39.22
11605;BME280;5858;43.076;25.626;2023-02-02T12:37:17;99047.22;;;9.75;40.89
11605;BME280;5858;43.076;25.626;2023-02-02T12:39:59;99170.00;;;9.54;57.28
11605;BME280;5858;43.076;25.626;2023-02-02T12:42:43;99205.16;;;8.41;75.06
11605;BME280;5858;43.076;25.626;2023-02-02T12:45:29;99152.22;;;7.42;82.19
11605;BME280;5858;43.076;25.626;2023-02-02T12:48:25;99119.69;;;6.57;87.18
11605;BME280;5858;43.076;25.626;2023-02-02T12:51:08;99205.84;;;6.81;89.98
11605;BME280;5858;43.076;25.626;2023-02-02T12:53:52;99212.56;;;6.59;91.58
11605;BME280;5858;43.076;25.626;2023-02-02T12:56:33;99090.09;;;5.68;92.49
11605;BME280;5858;43.076;25.626;2023-02-02T12:59:06;99130.31;;;5.81;92.98
11605;BME280;5858;43.076;25.626;2023-02-02T13:01:57;99238.09;;;6.44;92.71
11605;BME280;5858;43.076;25.626;2023-02-02T13:04:47;99063.00;;;5.30;93.17
11605;BME280;5858;43.076;25.626;2023-02-02T13:07:26;99190.59;;;6.15;92.87
11605;BME280;5858;43.076;25.626;2023-02-02T13:10:07;99055.72;;;5.32;93.97
11605;BME280;5858;43.076;25.626;2023-02-02T13:12:44;99204.19;;;6.38;93.61
11605;BME280;5858;43.076;25.626;2023-02-02T13:15:17;99175.78;;;6.38;93.19
11605;BME280;5858;43.076;25.626;2023-02-02T13:17:48;99198.25;;;6.52;93.44
11605;BME280;5858;43.076;25.626;2023-02-02T13:20:22;99178.63;;;6.45;93.37
11605;BME280;5858;43.076;25.626;2023-02-02T13:22:55;99239.09;;;6.85;92.19
11605;BME280;5858;43.076;25.626;2023-02-02T13:25:41;99075.91;;;5.85;92.89
11605;BME280;5858;43.076;25.626;2023-02-02T13:28:18;99130.28;;;5.73;93.87
11605;BME280;5858;43.076;25.626;2023-02-02T13:30:49;99227.94;;;6.39;94.26
11605;BME280;5858;43.076;25.626;2023-02-02T13:33:22;99126.19;;;5.61;93.92
11605;BME280;5858;43.076;25.626;2023-02-02T13:35:53;99250.34;;;6.37;95.15
11605;BME280;5858;43.076;25.626;2023-02-02T13:38:22;99207.41;;;5.72;94.59
11605;BME280;5858;43.076;25.626;2023-02-02T13:40:53;99297.16;;;6.12;96.00
11605;BME280;5858;43.076;25.626;2023-02-02T13:43:29;99253.06;;;5.75;96.54
11605;BME280;5858;43.076;25.626;2023-02-02T13:46:05;99243.81;;;5.61;97.66
11605;BME280;5858;43.076;25.626;2023-02-02T13:48:50;99236.34;;;5.21;95.73
11605;BME280;5858;43.076;25.626;2023-02-02T13:51:49;99298.72;;;5.61;95.97
11605;BME280;5858;43.076;25.626;2023-02-02T14:00:22;99292.66;;;5.33;97.17